createdAt,value
2022-08-19T00:01:59.453Z,58.67
2022-08-19T00:04:31.836Z,58.72
2022-08-19T00:07:02.387Z,58.93
2022-08-19T00:09:31.342Z,58.67
2022-08-19T00:12:00.638Z,59.24
2022-08-19T00:14:32.667Z,59.27
2022-08-19T00:17:03.912Z,59.31
2022-08-19T00:19:32.896Z,59.85
2022-08-19T00:22:03.483Z,58.98
2022-08-19T00:24:31.727Z,59.25
2022-08-19T00:27:00.650Z,59.84
2022-08-19T00:29:52.487Z,59.36
2022-08-19T00:32:21.707Z,59.67
2022-08-19T00:34:49.877Z,60.17
2022-08-19T00:37:19.606Z,59.92
2022-08-19T00:39:49.178Z,59.50
2022-08-19T00:42:17.510Z,59.99
2022-08-19T00:44:45.706Z,59.65
2022-08-19T00:47:14.461Z,60.12
2022-08-19T00:49:52.277Z,60.05
2022-08-19T00:52:29.825Z,60.03
2022-08-19T00:54:59.271Z,60.01
2022-08-19T00:57:34.385Z,60.09
2022-08-19T01:00:04.077Z,60.10
2022-08-19T01:02:34.169Z,60.38
2022-08-19T01:05:04.348Z,60.43
2022-08-19T01:07:37.919Z,60.14
2022-08-19T01:10:11.108Z,60.25
2022-08-19T01:12:40.362Z,60.05
2022-08-19T01:15:12.711Z,60.34
2022-08-19T01:17:43.717Z,60.03
2022-08-19T01:20:16.019Z,59.87
2022-08-19T01:22:49.970Z,60.36
2022-08-19T01:25:22.651Z,60.34
2022-08-19T01:27:53.844Z,60.10
2022-08-19T01:30:28.383Z,59.83
2022-08-19T01:32:57.853Z,60.50
2022-08-19T01:35:29.567Z,60.10
2022-08-19T01:38:08.270Z,60.19
2022-08-19T01:40:41.306Z,60.14
2022-08-19T01:43:09.720Z,59.90
2022-08-19T01:45:38.458Z,60.45
2022-08-19T01:48:06.784Z,60.58
2022-08-19T01:50:36.297Z,60.18
2022-08-19T01:53:09.376Z,60.13
2022-08-19T01:55:41.670Z,60.88
2022-08-19T01:58:14.419Z,60.26
2022-08-19T02:00:43.854Z,60.75
2022-08-19T02:03:12.299Z,60.94
2022-08-19T02:05:42.296Z,60.31
2022-08-19T02:08:12.433Z,60.84
2022-08-19T02:10:44.596Z,61.15
2022-08-19T02:13:14.324Z,60.84
2022-08-19T02:15:42.602Z,61.22
2022-08-19T02:18:10.742Z,61.11
2022-08-19T02:20:40.393Z,60.66
2022-08-19T02:23:13.568Z,60.77
2022-08-19T02:25:47.381Z,61.02
2022-08-19T02:28:18.537Z,61.46
2022-08-19T02:30:47.774Z,61.18
2022-08-19T02:33:16.247Z,61.43
2022-08-19T02:35:45.388Z,61.55
2022-08-19T02:38:28.225Z,61.42
2022-08-19T02:41:01.629Z,61.49
2022-08-19T02:43:33.803Z,61.91
2022-08-19T02:46:03.743Z,61.61
2022-08-19T02:48:33.785Z,61.65
2022-08-19T02:51:01.910Z,61.73
2022-08-19T02:53:30.480Z,61.52
2022-08-19T02:55:59.876Z,62.21
2022-08-19T02:58:28.631Z,62.05
2022-08-19T03:00:58.528Z,62.02
2022-08-19T03:03:27.374Z,62.04
2022-08-19T03:06:10.737Z,61.69
2022-08-19T03:08:39.611Z,62.33
2022-08-19T03:11:15.819Z,61.43
2022-08-19T03:13:44.697Z,62.16
2022-08-19T03:16:14.353Z,61.69
2022-08-19T03:18:42.621Z,61.80
2022-08-19T03:21:12.373Z,61.88
2022-08-19T03:23:41.051Z,62.04
2022-08-19T03:26:16.639Z,61.64
2022-08-19T03:28:51.291Z,62.00
2022-08-19T03:31:44.320Z,61.79
2022-08-19T03:34:20.156Z,61.77
2022-08-19T03:36:49.147Z,62.16
2022-08-19T03:39:17.901Z,61.96
2022-08-19T03:41:49.925Z,62.41
2022-08-19T03:44:39.521Z,61.88
2022-08-19T03:47:07.786Z,62.15
2022-08-19T03:49:37.480Z,62.04
2022-08-19T03:52:08.352Z,62.20
2022-08-19T03:54:38.882Z,62.04
2022-08-19T03:57:09.897Z,62.05
2022-08-19T03:59:40.358Z,62.04
2022-08-19T04:02:12.062Z,62.27
2022-08-19T04:04:42.550Z,62.30
2022-08-19T04:07:11.850Z,62.70
2022-08-19T04:09:39.975Z,62.50
2022-08-19T04:12:10.159Z,62.71
2022-08-19T04:14:38.320Z,62.63
2022-08-19T04:17:06.651Z,62.43
2022-08-19T04:19:36.547Z,62.47
2022-08-19T04:22:05.886Z,62.60
2022-08-19T04:24:35.375Z,62.91
2022-08-19T04:27:04.149Z,62.54
2022-08-19T04:29:34.088Z,62.70
2022-08-19T04:32:08.459Z,62.80
2022-08-19T04:35:15.821Z,63.19
2022-08-19T04:37:29.576Z,63.17
2022-08-19T04:40:20.782Z,63.45
2022-08-19T04:42:48.899Z,63.02
2022-08-19T04:45:18.313Z,63.04
2022-08-19T04:47:49.133Z,62.82
2022-08-19T04:50:26.847Z,63.38
2022-08-19T04:52:56.907Z,63.01
2022-08-19T04:55:26.439Z,63.11
2022-08-19T04:57:54.659Z,63.09
2022-08-19T05:00:24.274Z,63.16
2022-08-19T05:02:52.557Z,63.20
2022-08-19T05:05:21.757Z,63.27
2022-08-19T05:07:49.898Z,63.39
2022-08-19T05:10:18.090Z,63.21
2022-08-19T05:12:46.137Z,63.05
2022-08-19T05:15:14.446Z,63.29
2022-08-19T05:18:04.144Z,63.18
2022-08-19T05:20:49.797Z,63.49
2022-08-19T05:23:20.646Z,63.77
2022-08-19T05:25:51.094Z,63.76
2022-08-19T05:28:19.392Z,63.91
2022-08-19T05:30:49.028Z,63.41
2022-08-19T05:33:18.763Z,63.29
2022-08-19T05:35:47.130Z,63.33
2022-08-19T05:38:15.174Z,63.29
2022-08-19T05:40:43.757Z,63.25
2022-08-19T05:43:11.844Z,63.78
2022-08-19T05:45:44.177Z,63.41
2022-08-19T05:48:13.322Z,63.58
2022-08-19T05:50:46.245Z,63.15
2022-08-19T05:53:15.283Z,63.42
2022-08-19T05:55:43.352Z,63.83
2022-08-19T05:58:11.436Z,63.84
2022-08-19T06:00:40.974Z,63.74
2022-08-19T06:03:12.415Z,63.43
2022-08-19T06:05:50.223Z,63.36
2022-08-19T06:08:34.594Z,63.70
2022-08-19T06:11:20.594Z,63.61
2022-08-19T06:13:51.887Z,63.42
2022-08-19T06:16:27.858Z,63.30
2022-08-19T06:18:58.323Z,63.38
2022-08-19T06:21:30.589Z,63.37
2022-08-19T06:24:00.567Z,63.40
2022-08-19T06:26:28.960Z,63.31
2022-08-19T06:28:57.403Z,63.37
2022-08-19T06:31:29.195Z,63.25
2022-08-19T06:33:57.295Z,63.53
2022-08-19T06:36:34.847Z,62.87
2022-08-19T06:39:05.335Z,63.57
2022-08-19T06:41:37.408Z,63.46
2022-08-19T06:44:13.386Z,63.62
2022-08-19T06:46:43.270Z,63.69
2022-08-19T06:49:14.946Z,63.84
2022-08-19T06:51:47.312Z,63.36
2022-08-19T06:54:20.009Z,63.89
2022-08-19T06:56:48.672Z,63.58
2022-08-19T06:59:21.003Z,63.36
2022-08-19T07:01:53.146Z,63.58
2022-08-19T07:04:24.670Z,62.94
2022-08-19T07:07:12.498Z,62.88
2022-08-19T07:09:51.776Z,62.90
2022-08-19T07:12:32.254Z,62.86
2022-08-19T07:15:00.613Z,62.95
2022-08-19T07:17:29.622Z,62.43
2022-08-19T07:20:05.421Z,62.32
2022-08-19T07:22:36.779Z,62.88
2022-08-19T07:25:07.542Z,62.79
2022-08-19T07:27:35.934Z,62.37
2022-08-19T07:30:05.835Z,62.71
2022-08-19T07:32:33.982Z,62.24
2022-08-19T07:35:04.202Z,62.10
2022-08-19T07:37:33.514Z,62.58
2022-08-19T07:40:04.266Z,62.76
2022-08-19T07:42:32.661Z,62.92
2022-08-19T07:45:01.029Z,62.51
2022-08-19T07:47:48.779Z,62.73
2022-08-19T07:50:19.321Z,62.92
2022-08-19T07:52:48.846Z,62.95
2022-08-19T07:55:40.352Z,63.35
2022-08-19T07:58:13.850Z,63.40
2022-08-19T08:00:42.553Z,62.95
2022-08-19T08:03:11.076Z,62.52
2022-08-19T08:05:57.106Z,63.07
2022-08-19T08:08:44.293Z,62.57
2022-08-19T08:11:20.043Z,62.20
2022-08-19T08:14:00.322Z,62.48
2022-08-19T08:16:30.881Z,62.09
2022-08-19T08:19:00.188Z,62.47
2022-08-19T08:21:29.450Z,62.64
2022-08-19T08:23:57.509Z,62.52
2022-08-19T08:26:27.875Z,62.20
2022-08-19T08:28:57.209Z,62.53
2022-08-19T08:31:25.494Z,62.32
2022-08-19T08:33:53.662Z,62.35
2022-08-19T08:36:21.799Z,61.70
2022-08-19T08:38:49.990Z,62.01
2022-08-19T08:41:30.162Z,62.20
2022-08-19T08:43:59.103Z,62.43
2022-08-19T08:46:37.165Z,62.15
2022-08-19T08:49:18.285Z,62.08
2022-08-19T08:52:00.011Z,61.95
2022-08-19T08:54:40.487Z,62.35
2022-08-19T08:57:36.922Z,62.08
2022-08-19T09:00:17.141Z,62.04
2022-08-19T09:02:50.825Z,62.58
2022-08-19T09:05:22.494Z,61.75
2022-08-19T09:08:02.705Z,61.73
2022-08-19T09:10:44.423Z,62.19
2022-08-19T09:13:23.637Z,61.69
2022-08-19T09:15:59.068Z,61.78
2022-08-19T09:18:29.836Z,61.85
2022-08-19T09:20:58.170Z,61.53
2022-08-19T09:23:26.987Z,62.19
2022-08-19T09:25:55.624Z,61.83
2022-08-19T09:28:26.975Z,61.44
2022-08-19T09:30:55.522Z,61.38
2022-08-19T09:33:23.602Z,61.62
2022-08-19T09:35:53.722Z,61.83
2022-08-19T09:38:22.492Z,61.37
2022-08-19T09:40:51.274Z,61.88
2022-08-19T09:43:33.695Z,61.71
2022-08-19T09:46:10.805Z,61.74
2022-08-19T09:48:40.406Z,61.66
2022-08-19T09:51:12.030Z,61.45
2022-08-19T09:53:41.194Z,61.71
2022-08-19T09:56:10.002Z,61.27
2022-08-19T09:58:39.487Z,60.77
2022-08-19T10:01:10.303Z,61.32
2022-08-19T10:03:39.216Z,61.47
2022-08-19T10:06:14.674Z,61.29
2022-08-19T10:08:50.301Z,60.85
2022-08-19T10:11:28.386Z,60.74
2022-08-19T10:14:06.741Z,60.96
2022-08-19T10:16:40.007Z,60.31
2022-08-19T10:19:08.286Z,59.98
2022-08-19T10:21:36.422Z,59.61
2022-08-19T10:24:09.514Z,59.86
2022-08-19T10:26:42.879Z,59.55
2022-08-19T10:29:12.442Z,59.78
2022-08-19T10:32:00.636Z,59.16
2022-08-19T10:34:31.180Z,58.94
2022-08-19T10:37:02.062Z,59.12
2022-08-19T10:39:33.740Z,58.44
2022-08-19T10:42:13.891Z,58.59
2022-08-19T10:44:42.717Z,58.34
2022-08-19T10:47:17.799Z,58.04
2022-08-19T10:50:12.939Z,58.48
2022-08-19T10:52:49.611Z,57.86
2022-08-19T10:55:40.383Z,57.69
2022-08-19T10:58:14.255Z,58.73
2022-08-19T11:00:43.759Z,57.76
2022-08-19T11:03:13.704Z,57.81
2022-08-19T11:05:42.188Z,58.21
2022-08-19T11:08:18.202Z,57.27
2022-08-19T11:11:00.091Z,57.64
2022-08-19T11:13:29.443Z,57.35
2022-08-19T11:16:06.788Z,55.49
2022-08-19T11:18:38.906Z,55.67
2022-08-19T11:21:13.920Z,55.57
2022-08-19T11:23:42.885Z,55.43
2022-08-19T11:26:11.265Z,54.87
2022-08-19T11:28:40.309Z,54.31
2022-08-19T11:31:13.693Z,54.60
2022-08-19T11:33:47.085Z,54.32
2022-08-19T11:36:17.371Z,54.79
2022-08-19T11:38:46.898Z,54.50
2022-08-19T11:41:15.043Z,54.22
2022-08-19T11:43:43.835Z,54.37
2022-08-19T11:46:14.961Z,54.69
2022-08-19T11:48:44.666Z,54.30
2022-08-19T11:51:19.324Z,54.47
2022-08-19T11:53:48.346Z,53.90
2022-08-19T11:56:16.847Z,54.46
2022-08-19T11:58:45.049Z,53.48
2022-08-19T12:01:16.404Z,52.21
2022-08-19T12:03:47.136Z,52.84
2022-08-19T12:06:18.809Z,52.98
2022-08-19T12:08:48.390Z,52.85
2022-08-19T12:11:16.897Z,52.84
2022-08-19T12:13:47.055Z,52.84
2022-08-19T12:16:18.523Z,51.89
2022-08-19T12:18:49.315Z,51.29
2022-08-19T12:21:22.043Z,51.09
2022-08-19T12:23:55.692Z,51.61
2022-08-19T12:26:25.342Z,51.69
2022-08-19T12:28:53.520Z,49.42
2022-08-19T12:31:22.787Z,49.81
2022-08-19T12:33:53.395Z,49.99
2022-08-19T12:36:22.926Z,50.48
2022-08-19T12:38:52.176Z,50.30
2022-08-19T12:41:23.154Z,49.17
2022-08-19T12:43:51.809Z,49.14
2022-08-19T12:46:22.290Z,47.84
2022-08-19T12:48:55.526Z,47.72
2022-08-19T12:51:24.448Z,48.27
2022-08-19T12:53:52.459Z,48.08
2022-08-19T12:56:23.165Z,47.71
2022-08-19T12:58:52.992Z,48.41
2022-08-19T13:01:22.916Z,48.91
2022-08-19T13:03:51.517Z,48.22
2022-08-19T13:06:21.181Z,47.28
2022-08-19T13:08:49.239Z,46.56
2022-08-19T13:11:21.837Z,46.59
2022-08-19T13:13:51.921Z,46.98
2022-08-19T13:16:22.867Z,46.79
2022-08-19T13:18:52.297Z,47.26
2022-08-19T13:21:23.785Z,46.83
2022-08-19T13:23:52.905Z,46.79
2022-08-19T13:26:21.091Z,46.18
2022-08-19T13:29:03.146Z,45.69
2022-08-19T13:31:52.098Z,46.50
2022-08-19T13:34:27.490Z,46.63
2022-08-19T13:37:00.745Z,46.19
2022-08-19T13:39:29.848Z,46.22
2022-08-19T13:42:00.143Z,46.20
2022-08-19T13:44:30.538Z,46.77
2022-08-19T13:47:06.595Z,46.57
2022-08-19T13:49:36.792Z,47.30
2022-08-19T13:52:07.762Z,47.65
2022-08-19T13:54:35.892Z,48.52
2022-08-19T13:57:04.008Z,49.71
2022-08-19T13:59:32.755Z,49.32
2022-08-19T14:02:01.475Z,49.28
2022-08-19T14:04:29.569Z,50.09
2022-08-19T14:06:57.626Z,49.49
2022-08-19T14:09:26.996Z,49.48
2022-08-19T14:11:55.266Z,49.11
2022-08-19T14:14:23.575Z,49.21
2022-08-19T14:16:52.834Z,48.40
2022-08-19T14:19:21.142Z,47.98
2022-08-19T14:21:49.259Z,48.88
2022-08-19T14:24:17.377Z,48.80
2022-08-19T14:26:46.818Z,48.62
2022-08-19T14:29:14.843Z,47.72
2022-08-19T14:31:44.140Z,47.83
2022-08-19T14:34:13.573Z,47.30
2022-08-19T14:36:42.789Z,47.48
2022-08-19T14:39:11.354Z,48.48
2022-08-19T14:41:43.058Z,49.09
2022-08-19T14:44:13.509Z,48.76
2022-08-19T14:46:42.228Z,48.70
2022-08-19T14:49:19.414Z,48.89
2022-08-19T14:51:47.939Z,48.81
2022-08-19T14:54:16.002Z,49.00
2022-08-19T14:56:44.306Z,48.53
2022-08-19T14:59:13.743Z,47.79
2022-08-19T15:01:42.244Z,48.76
2022-08-19T15:04:10.675Z,48.71
2022-08-19T15:06:39.115Z,48.21
2022-08-19T15:09:07.677Z,48.22
2022-08-19T15:11:36.224Z,48.13
2022-08-19T15:14:06.259Z,48.48
2022-08-19T15:16:35.682Z,47.56
2022-08-19T15:19:03.765Z,45.63
2022-08-19T15:21:32.378Z,45.86
2022-08-19T15:24:01.794Z,45.73
2022-08-19T15:26:33.173Z,45.59
2022-08-19T15:29:01.646Z,45.36
2022-08-19T15:31:32.994Z,45.61
2022-08-19T15:34:02.419Z,45.34
2022-08-19T15:36:31.345Z,44.61
2022-08-19T15:39:00.028Z,45.20
2022-08-19T15:41:31.549Z,43.66
2022-08-19T15:44:03.798Z,44.28
2022-08-19T15:46:34.297Z,43.53
2022-08-19T15:49:03.929Z,42.97
2022-08-19T15:51:35.395Z,42.19
2022-08-19T15:54:03.722Z,42.56
2022-08-19T15:56:46.387Z,42.97
2022-08-19T15:59:47.377Z,42.49
2022-08-19T16:02:33.939Z,42.94
2022-08-19T16:05:21.195Z,43.76
2022-08-19T16:07:49.330Z,44.19
2022-08-19T16:10:26.879Z,44.34
2022-08-19T16:12:57.354Z,44.22
2022-08-19T16:15:27.311Z,44.40
2022-08-19T16:17:57.189Z,44.00
2022-08-19T16:20:27.835Z,44.59
2022-08-19T16:22:58.348Z,45.03
2022-08-19T16:25:29.070Z,45.27
2022-08-19T16:28:07.778Z,45.14
2022-08-19T16:30:39.011Z,45.08
2022-08-19T16:33:07.705Z,45.53
2022-08-19T16:35:37.363Z,45.35
2022-08-19T16:38:06.884Z,45.24
2022-08-19T16:40:35.928Z,45.29
2022-08-19T16:43:04.398Z,45.64
2022-08-19T16:45:32.940Z,45.71
2022-08-19T16:48:00.981Z,45.67
2022-08-19T16:50:48.150Z,45.71
2022-08-19T16:53:25.473Z,46.05
2022-08-19T16:55:57.754Z,46.00
2022-08-19T16:58:28.495Z,46.01
2022-08-19T17:01:02.050Z,46.04
2022-08-19T17:03:36.467Z,46.53
2022-08-19T17:06:18.513Z,46.32
2022-08-19T17:08:52.490Z,46.93
2022-08-19T17:11:22.228Z,47.13
2022-08-19T17:13:51.158Z,47.66
2022-08-19T17:16:24.449Z,47.33
2022-08-19T17:18:53.660Z,47.97
2022-08-19T17:21:23.601Z,48.27
2022-08-19T17:23:53.124Z,47.90
2022-08-19T17:26:21.229Z,47.38
2022-08-19T17:28:53.397Z,47.82
2022-08-19T17:31:24.710Z,47.53
2022-08-19T17:33:53.254Z,47.21
2022-08-19T17:36:25.331Z,47.19
2022-08-19T17:38:56.735Z,47.50
2022-08-19T17:41:26.825Z,47.41
2022-08-19T17:43:55.376Z,47.68
2022-08-19T17:46:23.406Z,47.37
2022-08-19T17:48:56.895Z,47.85
2022-08-19T17:51:40.368Z,48.21
2022-08-19T17:54:12.206Z,48.36
2022-08-19T17:56:40.445Z,48.19
2022-08-19T17:59:13.941Z,48.20
2022-08-19T18:01:53.723Z,47.80
2022-08-19T18:04:24.780Z,47.76
2022-08-19T18:06:54.963Z,48.74
2022-08-19T18:09:41.717Z,48.75
2022-08-19T18:12:13.310Z,49.13
2022-08-19T18:14:42.458Z,49.44
2022-08-19T18:17:13.766Z,49.66
2022-08-19T18:19:44.264Z,49.80
2022-08-19T18:22:22.290Z,50.47
2022-08-19T18:24:52.072Z,50.05
2022-08-19T18:27:20.759Z,50.34
2022-08-19T18:29:49.096Z,50.29
2022-08-19T18:32:23.837Z,49.50
2022-08-19T18:34:54.016Z,48.91
2022-08-19T18:37:22.457Z,48.74
2022-08-19T18:40:09.486Z,48.57
2022-08-19T18:43:00.133Z,49.19
2022-08-19T18:46:00.745Z,49.08
2022-08-19T18:48:47.213Z,49.23
2022-08-19T18:51:18.166Z,50.00
2022-08-19T18:53:49.376Z,49.89
2022-08-19T18:56:23.872Z,49.79
2022-08-19T18:58:52.927Z,49.88
2022-08-19T19:01:26.119Z,49.98
2022-08-19T19:03:56.136Z,49.95
2022-08-19T19:06:26.928Z,50.18
2022-08-19T19:08:55.851Z,50.30
2022-08-19T19:11:29.131Z,49.73
2022-08-19T19:13:57.351Z,49.83
2022-08-19T19:16:25.678Z,50.52
2022-08-19T19:18:53.742Z,50.63
2022-08-19T19:21:23.163Z,50.48
2022-08-19T19:23:52.222Z,50.35
2022-08-19T19:26:21.655Z,50.11
2022-08-19T19:28:51.875Z,49.72
2022-08-19T19:31:25.555Z,50.10
2022-08-19T19:33:55.911Z,49.81
2022-08-19T19:36:24.418Z,49.77
2022-08-19T19:38:52.914Z,49.70
2022-08-19T19:41:24.150Z,49.30
2022-08-19T19:44:23.216Z,49.00
2022-08-19T19:46:43.836Z,49.23
2022-08-19T19:49:12.819Z,48.77
2022-08-19T19:51:41.875Z,49.15
2022-08-19T19:54:38.226Z,48.99
2022-08-19T19:57:56.284Z,48.95
2022-08-19T20:00:51.071Z,49.05
2022-08-19T20:04:12.778Z,48.82
2022-08-19T20:06:41.552Z,49.23
2022-08-19T20:09:10.805Z,48.82
2022-08-19T20:11:44.644Z,48.42
2022-08-19T20:14:16.421Z,48.85
2022-08-19T20:16:48.360Z,48.61
2022-08-19T20:19:19.699Z,49.13
2022-08-19T20:21:51.791Z,49.23
2022-08-19T20:24:23.868Z,48.79
2022-08-19T20:26:53.567Z,48.76
2022-08-19T20:29:38.292Z,49.46
2022-08-19T20:32:11.287Z,49.43
2022-08-19T20:34:39.751Z,48.80
2022-08-19T20:37:09.334Z,49.51
2022-08-19T20:39:38.190Z,49.46
2022-08-19T20:42:06.754Z,49.42
2022-08-19T20:44:35.413Z,49.33
2022-08-19T20:47:04.366Z,49.10
2022-08-19T20:49:35.194Z,49.83
2022-08-19T20:52:06.243Z,49.81
2022-08-19T20:54:34.842Z,49.70
2022-08-19T20:57:05.366Z,49.71
2022-08-19T20:59:33.470Z,50.23
2022-08-19T21:02:01.614Z,50.53
2022-08-19T21:04:29.717Z,50.57
2022-08-19T21:06:59.368Z,50.00
2022-08-19T21:09:27.387Z,50.44
2022-08-19T21:11:55.515Z,50.66
2022-08-19T21:14:23.677Z,50.94
2022-08-19T21:16:51.742Z,50.62
2022-08-19T21:19:23.705Z,50.96
2022-08-19T21:21:52.532Z,51.29
2022-08-19T21:24:22.165Z,51.26
2022-08-19T21:26:58.323Z,51.98
2022-08-19T21:29:26.369Z,51.76
2022-08-19T21:31:54.624Z,51.49
2022-08-19T21:34:22.711Z,52.65
2022-08-19T21:36:50.849Z,52.84
2022-08-19T21:39:18.950Z,53.35
2022-08-19T21:41:48.305Z,53.10
2022-08-19T21:44:16.366Z,53.17
2022-08-19T21:46:44.378Z,54.11
2022-08-19T21:49:19.543Z,54.15
2022-08-19T21:51:47.636Z,53.70
2022-08-19T21:54:15.782Z,54.53
2022-08-19T21:56:43.984Z,54.42
2022-08-19T21:59:13.316Z,54.26
2022-08-19T22:01:46.019Z,54.23
2022-08-19T22:04:16.813Z,54.96
2022-08-19T22:06:44.999Z,55.65
2022-08-19T22:09:14.187Z,55.48
2022-08-19T22:11:44.309Z,54.96
2022-08-19T22:14:13.789Z,55.14
2022-08-19T22:16:41.859Z,55.82
2022-08-19T22:19:10.104Z,55.46
2022-08-19T22:21:40.210Z,55.11
2022-08-19T22:24:10.174Z,55.33
2022-08-19T22:26:38.332Z,55.51
2022-08-19T22:29:07.478Z,55.16
2022-08-19T22:31:37.546Z,55.02
2022-08-19T22:34:07.447Z,55.64
2022-08-19T22:36:35.638Z,55.68
2022-08-19T22:39:05.166Z,55.42
2022-08-19T22:41:34.484Z,55.29
2022-08-19T22:44:03.736Z,55.33
2022-08-19T22:46:34.222Z,55.64
2022-08-19T22:49:03.647Z,55.47
2022-08-19T22:51:49.785Z,55.07
2022-08-19T22:54:17.983Z,55.48
2022-08-19T22:56:46.087Z,55.51
2022-08-19T22:59:14.243Z,55.02
2022-08-19T23:01:42.682Z,55.80
2022-08-19T23:04:12.279Z,55.85
2022-08-19T23:06:42.223Z,55.82
2022-08-19T23:09:11.283Z,56.20
2022-08-19T23:11:45.460Z,55.89
2022-08-19T23:14:14.418Z,56.45
2022-08-19T23:16:50.415Z,56.43
2022-08-19T23:19:22.042Z,56.28
2022-08-19T23:21:50.437Z,56.67
2022-08-19T23:24:18.486Z,56.90
2022-08-19T23:27:00.555Z,56.72
2022-08-19T23:29:47.362Z,57.14
2022-08-19T23:32:17.721Z,57.13
2022-08-19T23:34:47.210Z,56.55
2022-08-19T23:37:15.588Z,56.84
2022-08-19T23:39:45.183Z,57.28
2022-08-19T23:42:14.003Z,56.79
2022-08-19T23:44:52.023Z,57.25
2022-08-19T23:47:21.757Z,57.18
2022-08-19T23:49:51.582Z,57.46
2022-08-19T23:52:20.328Z,57.55
2022-08-19T23:54:48.376Z,57.44
2022-08-19T23:57:16.507Z,57.50
2022-08-19T23:59:46.102Z,57.95
